Calcium, New York
Current Conditions -  °F | °C
As of 3:58 AM on Sunday 26 Oct 2014 (Local Time) from KGTB Reporting Station
Overcast Overcast  
Wind Chill: 45°   Ceiling: 4100
Heat Index: 48°   Visibility: 10mi
Dew Point: 38°   Wind: 6mph
Humidity: 69%   Direction: 270°W
Pressure: 29.5"   Gusts: NA
Location:  44.03°N, 75.85°W
Report Text: KGTB 260758Z AUTO 27005KT 10SM OVC041 09/03 A2950 RMK AO2 DZB0718E0731 SLP991 P0000 T00870033
Loading
Personal Weather Stations






























Interactive Weather Map
Tropical Storm Tracking
New forecast layout! Learn more

10-Day Weather Forecast

Advertisements
Track Severe Weather on mobile